sensor_id;sensor_type;location;lat;lon;timestamp;pressure;altitude;pressure_sealevel;temperature;humidity
50394;BME280;36308;46.312;25.288;2024-03-29T00:02:07;95384.31;;;5.41;60.20
50394;BME280;36308;46.312;25.288;2024-03-29T00:04:33;95390.94;;;5.38;60.37
50394;BME280;36308;46.312;25.288;2024-03-29T00:06:58;95381.56;;;5.36;60.38
50394;BME280;36308;46.312;25.288;2024-03-29T00:09:24;95382.03;;;5.33;60.20
50394;BME280;36308;46.312;25.288;2024-03-29T00:11:49;95389.47;;;5.31;60.16
50394;BME280;36308;46.312;25.288;2024-03-29T00:14:14;95392.38;;;5.29;60.29
50394;BME280;36308;46.312;25.288;2024-03-29T00:16:40;95389.97;;;5.28;60.56
50394;BME280;36308;46.312;25.288;2024-03-29T00:19:05;95394.47;;;5.27;60.73
50394;BME280;36308;46.312;25.288;2024-03-29T00:21:31;95386.72;;;5.25;60.73
50394;BME280;36308;46.312;25.288;2024-03-29T00:23:56;95385.09;;;5.24;60.96
50394;BME280;36308;46.312;25.288;2024-03-29T00:26:21;95389.63;;;5.24;60.55
50394;BME280;36308;46.312;25.288;2024-03-29T00:28:47;95391.50;;;5.23;60.99
50394;BME280;36308;46.312;25.288;2024-03-29T00:31:12;95397.63;;;5.24;61.19
50394;BME280;36308;46.312;25.288;2024-03-29T00:33:37;95404.81;;;5.23;60.92
50394;BME280;36308;46.312;25.288;2024-03-29T00:36:05;95388.81;;;5.23;61.39
50394;BME280;36308;46.312;25.288;2024-03-29T00:38:30;95391.50;;;5.23;61.44
50394;BME280;36308;46.312;25.288;2024-03-29T00:40:56;95389.63;;;5.24;61.04
50394;BME280;36308;46.312;25.288;2024-03-29T00:43:21;95389.41;;;5.25;61.27
50394;BME280;36308;46.312;25.288;2024-03-29T00:45:46;95388.59;;;5.25;61.67
50394;BME280;36308;46.312;25.288;2024-03-29T00:48:12;95384.88;;;5.26;61.25
50394;BME280;36308;46.312;25.288;2024-03-29T00:50:40;95383.00;;;5.26;61.24
50394;BME280;36308;46.312;25.288;2024-03-29T00:53:05;95380.34;;;5.26;61.47
50394;BME280;36308;46.312;25.288;2024-03-29T00:55:31;95384.88;;;5.26;61.51
50394;BME280;36308;46.312;25.288;2024-03-29T00:57:56;95390.44;;;5.24;61.58
50394;BME280;36308;46.312;25.288;2024-03-29T01:00:22;95391.25;;;5.25;61.42
50394;BME280;36308;46.312;25.288;2024-03-29T01:02:48;95395.75;;;5.24;61.33
50394;BME280;36308;46.312;25.288;2024-03-29T01:05:13;95404.81;;;5.23;61.37
50394;BME280;36308;46.312;25.288;2024-03-29T01:07:42;95409.34;;;5.23;61.28
50394;BME280;36308;46.312;25.288;2024-03-29T01:10:07;95406.91;;;5.21;61.38
50394;BME280;36308;46.312;25.288;2024-03-29T01:12:34;95408.78;;;5.21;61.70
50394;BME280;36308;46.312;25.288;2024-03-29T01:14:59;95409.00;;;5.19;61.57
50394;BME280;36308;46.312;25.288;2024-03-29T01:17:24;95409.00;;;5.19;61.92
50394;BME280;36308;46.312;25.288;2024-03-29T01:19:50;95411.91;;;5.18;61.80
50394;BME280;36308;46.312;25.288;2024-03-29T01:22:15;95406.56;;;5.18;62.04
50394;BME280;36308;46.312;25.288;2024-03-29T01:24:41;95406.56;;;5.18;62.31
50394;BME280;36308;46.312;25.288;2024-03-29T01:27:06;95411.66;;;5.19;62.25
50394;BME280;36308;46.312;25.288;2024-03-29T01:29:32;95410.88;;;5.19;61.79
50394;BME280;36308;46.312;25.288;2024-03-29T01:31:57;95413.28;;;5.20;62.11
50394;BME280;36308;46.312;25.288;2024-03-29T01:34:23;95415.94;;;5.20;61.86
50394;BME280;36308;46.312;25.288;2024-03-29T01:36:49;95403.69;;;5.19;62.22
50394;BME280;36308;46.312;25.288;2024-03-29T01:39:14;95414.34;;;5.19;62.44
50394;BME280;36308;46.312;25.288;2024-03-29T01:41:42;95414.34;;;5.19;62.28
50394;BME280;36308;46.312;25.288;2024-03-29T01:44:08;95413.28;;;5.20;62.45
50394;BME280;36308;46.312;25.288;2024-03-29T01:46:34;95409.00;;;5.19;62.27
50394;BME280;36308;46.312;25.288;2024-03-29T01:49:00;95414.34;;;5.19;62.65
50394;BME280;36308;46.312;25.288;2024-03-29T01:51:26;95434.03;;;5.18;62.46
50394;BME280;36308;46.312;25.288;2024-03-29T01:53:52;95434.84;;;5.19;62.66
50394;BME280;36308;46.312;25.288;2024-03-29T01:56:19;95440.97;;;5.19;62.46
50394;BME280;36308;46.312;25.288;2024-03-29T01:58:45;95433.00;;;5.19;63.02
50394;BME280;36308;46.312;25.288;2024-03-29T02:01:10;95437.81;;;5.22;63.12
50394;BME280;36308;46.312;25.288;2024-03-29T02:03:36;95432.28;;;5.24;63.24
50394;BME280;36308;46.312;25.288;2024-03-29T02:06:02;95444.06;;;5.28;63.14
50394;BME280;36308;46.312;25.288;2024-03-29T02:08:28;95451.00;;;5.29;63.26
50394;BME280;36308;46.312;25.288;2024-03-29T02:10:54;95449.97;;;5.30;63.37
50394;BME280;36308;46.312;25.288;2024-03-29T02:13:19;95455.06;;;5.32;63.48
50394;BME280;36308;46.312;25.288;2024-03-29T02:15:45;95452.97;;;5.34;63.37
50394;BME280;36308;46.312;25.288;2024-03-29T02:18:10;95447.66;;;5.34;63.16
50394;BME280;36308;46.312;25.288;2024-03-29T02:20:36;95449.25;;;5.35;63.58
50394;BME280;36308;46.312;25.288;2024-03-29T02:23:06;95444.50;;;5.37;63.11
50394;BME280;36308;46.312;25.288;2024-03-29T02:25:31;95448.78;;;5.38;63.18
50394;BME280;36308;46.312;25.288;2024-03-29T02:27:57;95452.59;;;5.42;63.12
50394;BME280;36308;46.312;25.288;2024-03-29T02:30:23;95454.78;;;5.45;63.29
50394;BME280;36308;46.312;25.288;2024-03-29T02:32:50;95458.00;;;5.47;63.26
50394;BME280;36308;46.312;25.288;2024-03-29T02:35:15;95462.03;;;5.50;63.36
50394;BME280;36308;46.312;25.288;2024-03-29T02:37:40;95457.03;;;5.53;63.32
50394;BME280;36308;46.312;25.288;2024-03-29T02:40:06;95462.94;;;5.55;63.30
50394;BME280;36308;46.312;25.288;2024-03-29T02:42:34;95464.09;;;5.59;63.64
50394;BME280;36308;46.312;25.288;2024-03-29T02:45:01;95460.97;;;5.62;63.63
50394;BME280;36308;46.312;25.288;2024-03-29T02:47:26;95455.38;;;5.64;63.40
50394;BME280;36308;46.312;25.288;2024-03-29T02:49:51;95465.56;;;5.67;63.42
50394;BME280;36308;46.312;25.288;2024-03-29T02:52:17;95469.59;;;5.70;63.49
50394;BME280;36308;46.312;25.288;2024-03-29T02:54:42;95471.78;;;5.73;63.58
50394;BME280;36308;46.312;25.288;2024-03-29T02:57:08;95472.34;;;5.75;63.67
50394;BME280;36308;46.312;25.288;2024-03-29T02:59:33;95476.66;;;5.76;63.65
50394;BME280;36308;46.312;25.288;2024-03-29T03:02:01;95481.47;;;5.79;63.79
50394;BME280;36308;46.312;25.288;2024-03-29T03:04:26;95474.03;;;5.81;63.73
50394;BME280;36308;46.312;25.288;2024-03-29T03:06:52;95455.94;;;5.83;63.93
50394;BME280;36308;46.312;25.288;2024-03-29T03:09:17;95464.50;;;5.85;63.95
50394;BME280;36308;46.312;25.288;2024-03-29T03:12:01;95473.91;;;5.87;64.20
50394;BME280;36308;46.312;25.288;2024-03-29T03:14:26;95509.16;;;5.90;63.95
50394;BME280;36308;46.312;25.288;2024-03-29T03:16:52;95511.56;;;5.91;64.02
50394;BME280;36308;46.312;25.288;2024-03-29T03:19:17;95520.16;;;5.93;63.84
50394;BME280;36308;46.312;25.288;2024-03-29T03:21:43;95507.41;;;5.95;64.19
50394;BME280;36308;46.312;25.288;2024-03-29T03:24:09;95522.16;;;5.98;63.87
50394;BME280;36308;46.312;25.288;2024-03-29T03:26:34;95518.19;;;6.00;64.00
50394;BME280;36308;46.312;25.288;2024-03-29T03:28:59;95528.34;;;6.03;64.23
50394;BME280;36308;46.312;25.288;2024-03-29T03:31:25;95532.66;;;6.04;64.16
50394;BME280;36308;46.312;25.288;2024-03-29T03:33:50;95525.22;;;6.06;64.09
50394;BME280;36308;46.312;25.288;2024-03-29T03:36:15;95521.50;;;6.07;64.16
50394;BME280;36308;46.312;25.288;2024-03-29T03:38:41;95533.00;;;6.08;63.92
50394;BME280;36308;46.312;25.288;2024-03-29T03:41:07;95517.78;;;6.09;64.06
50394;BME280;36308;46.312;25.288;2024-03-29T03:43:32;95536.22;;;6.10;63.89
50394;BME280;36308;46.312;25.288;2024-03-29T03:46:01;95543.97;;;6.12;64.08
50394;BME280;36308;46.312;25.288;2024-03-29T03:48:27;95551.75;;;6.13;64.22
50394;BME280;36308;46.312;25.288;2024-03-29T03:50:53;95546.75;;;6.17;64.00
50394;BME280;36308;46.312;25.288;2024-03-29T03:53:19;95548.34;;;6.18;64.29
50394;BME280;36308;46.312;25.288;2024-03-29T03:55:45;95553.22;;;6.21;64.17
50394;BME280;36308;46.312;25.288;2024-03-29T03:58:10;95560.72;;;6.24;64.17
50394;BME280;36308;46.312;25.288;2024-03-29T04:00:37;95562.09;;;6.26;64.28
50394;BME280;36308;46.312;25.288;2024-03-29T04:03:02;95560.00;;;6.28;64.25
50394;BME280;36308;46.312;25.288;2024-03-29T04:05:28;95564.88;;;6.32;64.51
50394;BME280;36308;46.312;25.288;2024-03-29T04:07:56;95568.91;;;6.34;64.37
50394;BME280;36308;46.312;25.288;2024-03-29T04:10:22;95574.59;;;6.38;64.51
50394;BME280;36308;46.312;25.288;2024-03-29T04:12:47;95582.38;;;6.39;64.25
50394;BME280;36308;46.312;25.288;2024-03-29T04:15:12;95590.94;;;6.41;64.45
50394;BME280;36308;46.312;25.288;2024-03-29T04:17:38;95600.56;;;6.42;64.25
50394;BME280;36308;46.312;25.288;2024-03-29T04:20:03;95606.97;;;6.41;64.17
50394;BME280;36308;46.312;25.288;2024-03-29T04:22:29;95617.88;;;6.40;64.26
50394;BME280;36308;46.312;25.288;2024-03-29T04:24:54;95621.34;;;6.40;64.30
50394;BME280;36308;46.312;25.288;2024-03-29T04:27:20;95628.78;;;6.38;64.27
50394;BME280;36308;46.312;25.288;2024-03-29T04:29:45;95647.72;;;6.37;64.45
50394;BME280;36308;46.312;25.288;2024-03-29T04:32:11;95647.97;;;6.35;63.96
50394;BME280;36308;46.312;25.288;2024-03-29T04:34:36;95650.66;;;6.35;64.15
50394;BME280;36308;46.312;25.288;2024-03-29T04:37:01;95654.34;;;6.34;64.07
50394;BME280;36308;46.312;25.288;2024-03-29T04:39:27;95649.34;;;6.38;65.24
50394;BME280;36308;46.312;25.288;2024-03-29T04:41:52;95654.78;;;6.60;67.43
50394;BME280;36308;46.312;25.288;2024-03-29T04:44:27;95672.06;;;6.86;67.97
50394;BME280;36308;46.312;25.288;2024-03-29T04:46:53;95672.03;;;7.20;68.30
50394;BME280;36308;46.312;25.288;2024-03-29T04:49:18;95672.16;;;7.47;67.61
50394;BME280;36308;46.312;25.288;2024-03-29T04:51:48;95673.06;;;7.75;67.01
50394;BME280;36308;46.312;25.288;2024-03-29T04:54:14;95685.28;;;8.09;66.41
50394;BME280;36308;46.312;25.288;2024-03-29T04:56:41;95667.41;;;8.42;66.39
50394;BME280;36308;46.312;25.288;2024-03-29T04:59:06;95663.97;;;8.74;65.50
50394;BME280;36308;46.312;25.288;2024-03-29T05:01:32;95661.00;;;9.03;63.86
50394;BME280;36308;46.312;25.288;2024-03-29T05:04:00;95655.75;;;9.23;63.04
50394;BME280;36308;46.312;25.288;2024-03-29T05:06:25;95664.22;;;9.42;62.43
50394;BME280;36308;46.312;25.288;2024-03-29T05:08:50;95662.41;;;9.58;61.88
50394;BME280;36308;46.312;25.288;2024-03-29T05:11:16;95670.53;;;9.68;61.22
50394;BME280;36308;46.312;25.288;2024-03-29T05:13:41;95677.03;;;9.78;61.38
50394;BME280;36308;46.312;25.288;2024-03-29T05:16:06;95674.66;;;9.86;61.15
50394;BME280;36308;46.312;25.288;2024-03-29T05:18:32;95685.41;;;9.91;60.89
50394;BME280;36308;46.312;25.288;2024-03-29T05:20:57;95684.63;;;9.96;60.94
50394;BME280;36308;46.312;25.288;2024-03-29T05:23:22;95675.00;;;10.05;60.27
50394;BME280;36308;46.312;25.288;2024-03-29T05:25:48;95665.63;;;10.18;60.21
50394;BME280;36308;46.312;25.288;2024-03-29T05:28:14;95650.91;;;10.31;60.06
50394;BME280;36308;46.312;25.288;2024-03-29T05:30:40;95645.59;;;10.46;60.16
50394;BME280;36308;46.312;25.288;2024-03-29T05:33:05;95652.59;;;10.58;60.30
50394;BME280;36308;46.312;25.288;2024-03-29T05:35:32;95644.53;;;10.68;59.98
50394;BME280;36308;46.312;25.288;2024-03-29T05:37:57;95626.28;;;10.75;59.69
50394;BME280;36308;46.312;25.288;2024-03-29T05:40:23;95632.19;;;10.87;59.44
50394;BME280;36308;46.312;25.288;2024-03-29T05:42:50;95612.81;;;11.01;59.67
50394;BME280;36308;46.312;25.288;2024-03-29T05:45:29;95610.66;;;11.13;59.79
50394;BME280;36308;46.312;25.288;2024-03-29T05:47:55;95602.28;;;11.25;59.57
50394;BME280;36308;46.312;25.288;2024-03-29T05:50:21;95599.84;;;11.33;59.24
50394;BME280;36308;46.312;25.288;2024-03-29T05:52:46;95599.81;;;11.44;59.63
50394;BME280;36308;46.312;25.288;2024-03-29T05:55:12;95601.94;;;11.57;59.04
50394;BME280;36308;46.312;25.288;2024-03-29T05:57:38;95612.41;;;11.69;58.83
50394;BME280;36308;46.312;25.288;2024-03-29T06:00:06;95608.56;;;11.80;58.46
50394;BME280;36308;46.312;25.288;2024-03-29T06:02:32;95607.72;;;11.95;57.83
50394;BME280;36308;46.312;25.288;2024-03-29T06:04:57;95603.91;;;12.06;57.75
50394;BME280;36308;46.312;25.288;2024-03-29T06:07:22;95619.75;;;12.18;57.38
50394;BME280;36308;46.312;25.288;2024-03-29T06:09:48;95619.69;;;12.28;57.12
50394;BME280;36308;46.312;25.288;2024-03-29T06:12:13;95626.91;;;12.43;56.26
50394;BME280;36308;46.312;25.288;2024-03-29T06:14:38;95642.44;;;12.57;55.52
50394;BME280;36308;46.312;25.288;2024-03-29T06:17:22;95634.22;;;12.72;54.67
50394;BME280;36308;46.312;25.288;2024-03-29T06:19:48;95653.03;;;12.87;54.20
50394;BME280;36308;46.312;25.288;2024-03-29T06:22:15;95633.53;;;12.96;54.06
50394;BME280;36308;46.312;25.288;2024-03-29T06:24:41;95652.88;;;13.08;53.55
50394;BME280;36308;46.312;25.288;2024-03-29T06:27:08;95652.78;;;13.18;53.52
50394;BME280;36308;46.312;25.288;2024-03-29T06:29:34;95648.13;;;13.29;53.20
50394;BME280;36308;46.312;25.288;2024-03-29T06:31:59;95658.03;;;13.39;52.51
50394;BME280;36308;46.312;25.288;2024-03-29T06:34:25;95672.50;;;13.48;52.51
50394;BME280;36308;46.312;25.288;2024-03-29T06:36:50;95688.69;;;13.53;52.07
50394;BME280;36308;46.312;25.288;2024-03-29T06:39:15;95708.56;;;13.62;52.00
50394;BME280;36308;46.312;25.288;2024-03-29T06:41:42;95703.63;;;13.69;51.78
50394;BME280;36308;46.312;25.288;2024-03-29T06:44:07;95723.59;;;13.73;52.16
50394;BME280;36308;46.312;25.288;2024-03-29T06:46:33;95757.56;;;13.80;51.62
50394;BME280;36308;46.312;25.288;2024-03-29T06:49:02;95740.75;;;13.88;50.86
50394;BME280;36308;46.312;25.288;2024-03-29T06:51:31;95768.25;;;13.95;50.20
50394;BME280;36308;46.312;25.288;2024-03-29T06:54:03;95761.47;;;13.98;50.50
50394;BME280;36308;46.312;25.288;2024-03-29T06:56:28;95772.50;;;14.01;50.96
50394;BME280;36308;46.312;25.288;2024-03-29T06:58:55;95787.59;;;14.07;50.84
50394;BME280;36308;46.312;25.288;2024-03-29T07:01:20;95796.44;;;14.13;51.29
50394;BME280;36308;46.312;25.288;2024-03-29T07:03:45;95820.97;;;14.22;50.32
50394;BME280;36308;46.312;25.288;2024-03-29T07:06:11;95832.84;;;14.26;50.68
50394;BME280;36308;46.312;25.288;2024-03-29T07:08:38;95829.00;;;14.32;50.65
50394;BME280;36308;46.312;25.288;2024-03-29T07:11:04;95819.22;;;14.36;50.32
50394;BME280;36308;46.312;25.288;2024-03-29T07:13:29;95829.69;;;14.43;50.07
50394;BME280;36308;46.312;25.288;2024-03-29T07:15:56;95843.13;;;14.48;50.18
50394;BME280;36308;46.312;25.288;2024-03-29T07:18:22;95842.53;;;14.56;49.96
50394;BME280;36308;46.312;25.288;2024-03-29T07:20:49;95853.53;;;14.65;49.52
50394;BME280;36308;46.312;25.288;2024-03-29T07:23:15;95858.81;;;14.75;49.12
50394;BME280;36308;46.312;25.288;2024-03-29T07:25:41;95854.97;;;14.81;49.69
50394;BME280;36308;46.312;25.288;2024-03-29T07:28:06;95861.88;;;14.92;49.71
50394;BME280;36308;46.312;25.288;2024-03-29T07:30:32;95870.41;;;15.05;50.06
50394;BME280;36308;46.312;25.288;2024-03-29T07:32:57;95869.69;;;15.18;50.21
50394;BME280;36308;46.312;25.288;2024-03-29T07:35:23;95878.19;;;15.30;49.53
50394;BME280;36308;46.312;25.288;2024-03-29T07:37:48;95870.50;;;15.38;49.21
50394;BME280;36308;46.312;25.288;2024-03-29T07:40:16;95886.69;;;15.43;47.81
50394;BME280;36308;46.312;25.288;2024-03-29T07:42:41;95886.41;;;15.44;47.46
50394;BME280;36308;46.312;25.288;2024-03-29T07:45:07;95874.75;;;15.44;47.22
50394;BME280;36308;46.312;25.288;2024-03-29T07:47:32;95888.09;;;15.40;47.35
50394;BME280;36308;46.312;25.288;2024-03-29T07:49:58;95890.56;;;15.36;47.63
50394;BME280;36308;46.312;25.288;2024-03-29T07:52:23;95895.69;;;15.38;47.87
50394;BME280;36308;46.312;25.288;2024-03-29T07:54:50;95892.69;;;15.40;48.13
50394;BME280;36308;46.312;25.288;2024-03-29T07:57:15;95894.53;;;15.44;46.47
50394;BME280;36308;46.312;25.288;2024-03-29T07:59:42;95892.25;;;15.51;46.39
50394;BME280;36308;46.312;25.288;2024-03-29T08:02:07;95890.72;;;15.64;45.63
50394;BME280;36308;46.312;25.288;2024-03-29T08:04:34;95902.75;;;15.77;45.44
50394;BME280;36308;46.312;25.288;2024-03-29T08:06:59;95897.41;;;15.91;45.56
50394;BME280;36308;46.312;25.288;2024-03-29T08:09:25;95910.75;;;16.06;44.62
50394;BME280;36308;46.312;25.288;2024-03-29T08:11:50;95916.97;;;16.21;44.92
50394;BME280;36308;46.312;25.288;2024-03-29T08:14:15;95912.22;;;16.31;44.47
50394;BME280;36308;46.312;25.288;2024-03-29T08:16:41;95908.44;;;16.46;44.71
50394;BME280;36308;46.312;25.288;2024-03-29T08:19:07;95910.88;;;16.62;44.26
50394;BME280;36308;46.312;25.288;2024-03-29T08:21:33;95918.75;;;16.77;43.98
50394;BME280;36308;46.312;25.288;2024-03-29T08:23:58;95910.13;;;16.89;43.13
50394;BME280;36308;46.312;25.288;2024-03-29T08:26:25;95925.34;;;17.04;42.88
50394;BME280;36308;46.312;25.288;2024-03-29T08:28:51;95917.28;;;17.12;42.31
50394;BME280;36308;46.312;25.288;2024-03-29T08:31:16;95933.06;;;17.24;42.00
50394;BME280;36308;46.312;25.288;2024-03-29T08:33:41;95932.25;;;17.37;42.31
50394;BME280;36308;46.312;25.288;2024-03-29T08:36:08;95939.28;;;17.52;42.05
50394;BME280;36308;46.312;25.288;2024-03-29T08:38:34;95929.00;;;17.63;41.46
50394;BME280;36308;46.312;25.288;2024-03-29T08:41:00;95939.06;;;17.76;41.57
50394;BME280;36308;46.312;25.288;2024-03-29T08:43:25;95932.19;;;17.93;40.35
50394;BME280;36308;46.312;25.288;2024-03-29T08:45:51;95941.22;;;18.02;39.30
50394;BME280;36308;46.312;25.288;2024-03-29T08:48:17;95950.38;;;18.06;39.34
50394;BME280;36308;46.312;25.288;2024-03-29T08:51:01;95947.41;;;18.16;39.39
50394;BME280;36308;46.312;25.288;2024-03-29T08:53:26;95952.81;;;18.30;38.58
50394;BME280;36308;46.312;25.288;2024-03-29T08:55:52;95960.41;;;18.42;38.28
50394;BME280;36308;46.312;25.288;2024-03-29T08:58:17;95961.78;;;18.53;38.07
50394;BME280;36308;46.312;25.288;2024-03-29T09:00:51;95981.56;;;18.68;37.86
50394;BME280;36308;46.312;25.288;2024-03-29T09:03:17;95973.66;;;18.80;36.09
50394;BME280;36308;46.312;25.288;2024-03-29T09:05:42;95975.94;;;18.87;36.28
50394;BME280;36308;46.312;25.288;2024-03-29T09:08:08;95987.88;;;19.00;36.26
50394;BME280;36308;46.312;25.288;2024-03-29T09:10:33;95985.97;;;19.09;36.32
50394;BME280;36308;46.312;25.288;2024-03-29T09:12:59;96010.72;;;19.21;36.21
50394;BME280;36308;46.312;25.288;2024-03-29T09:15:24;96001.81;;;19.38;35.33
50394;BME280;36308;46.312;25.288;2024-03-29T09:17:49;95995.16;;;19.53;33.18
50394;BME280;36308;46.312;25.288;2024-03-29T09:20:15;96012.34;;;19.62;33.96
50394;BME280;36308;46.312;25.288;2024-03-29T09:22:40;96005.81;;;19.72;33.43
50394;BME280;36308;46.312;25.288;2024-03-29T09:25:06;96022.69;;;19.83;33.39
50394;BME280;36308;46.312;25.288;2024-03-29T09:27:34;96015.81;;;19.94;32.95
50394;BME280;36308;46.312;25.288;2024-03-29T09:30:01;96016.00;;;20.06;31.85
50394;BME280;36308;46.312;25.288;2024-03-29T09:32:27;96025.63;;;20.12;29.92
50394;BME280;36308;46.312;25.288;2024-03-29T09:34:53;96030.59;;;20.19;29.92
50394;BME280;36308;46.312;25.288;2024-03-29T09:37:18;96025.97;;;20.19;28.27
50394;BME280;36308;46.312;25.288;2024-03-29T09:39:45;96023.88;;;20.16;29.50
50394;BME280;36308;46.312;25.288;2024-03-29T09:42:11;96034.00;;;20.25;29.10
50394;BME280;36308;46.312;25.288;2024-03-29T09:44:39;96037.22;;;20.35;29.87
50394;BME280;36308;46.312;25.288;2024-03-29T09:47:06;96040.13;;;20.48;30.46
50394;BME280;36308;46.312;25.288;2024-03-29T09:49:32;96028.59;;;20.59;29.94
50394;BME280;36308;46.312;25.288;2024-03-29T09:52:00;96039.66;;;20.72;30.22
50394;BME280;36308;46.312;25.288;2024-03-29T09:54:29;96029.53;;;20.81;29.65
50394;BME280;36308;46.312;25.288;2024-03-29T09:56:57;96045.94;;;20.90;27.79
50394;BME280;36308;46.312;25.288;2024-03-29T09:59:23;96050.56;;;21.07;29.79
50394;BME280;36308;46.312;25.288;2024-03-29T10:01:50;96051.50;;;21.19;29.06
50394;BME280;36308;46.312;25.288;2024-03-29T10:04:16;96050.97;;;21.26;27.62
50394;BME280;36308;46.312;25.288;2024-03-29T10:06:42;96050.63;;;21.36;28.24
50394;BME280;36308;46.312;25.288;2024-03-29T10:11:57;96062.94;;;21.69;28.60
50394;BME280;36308;46.312;25.288;2024-03-29T10:14:22;96059.50;;;21.80;27.97
50394;BME280;36308;46.312;25.288;2024-03-29T10:16:50;96063.81;;;21.90;27.64
50394;BME280;36308;46.312;25.288;2024-03-29T10:19:16;96058.91;;;22.05;27.75
50394;BME280;36308;46.312;25.288;2024-03-29T10:21:41;96061.88;;;22.20;26.77
50394;BME280;36308;46.312;25.288;2024-03-29T10:24:11;96058.44;;;22.32;26.73
50394;BME280;36308;46.312;25.288;2024-03-29T10:26:37;96062.72;;;22.42;26.69
50394;BME280;36308;46.312;25.288;2024-03-29T10:29:03;96060.69;;;22.51;26.38
50394;BME280;36308;46.312;25.288;2024-03-29T10:31:33;96055.50;;;22.58;26.46
50394;BME280;36308;46.312;25.288;2024-03-29T10:34:01;96053.00;;;22.66;26.63
50394;BME280;36308;46.312;25.288;2024-03-29T10:36:27;96052.16;;;22.74;26.44
50394;BME280;36308;46.312;25.288;2024-03-29T10:38:52;96044.66;;;22.83;26.93
50394;BME280;36308;46.312;25.288;2024-03-29T10:41:18;96047.19;;;22.88;26.99
50394;BME280;36308;46.312;25.288;2024-03-29T10:43:44;96053.72;;;22.96;27.22
50394;BME280;36308;46.312;25.288;2024-03-29T10:46:12;96050.94;;;23.05;27.63
50394;BME280;36308;46.312;25.288;2024-03-29T10:48:38;96056.78;;;23.15;27.04
50394;BME280;36308;46.312;25.288;2024-03-29T10:51:04;96035.31;;;23.17;26.16
50394;BME280;36308;46.312;25.288;2024-03-29T10:53:29;96041.72;;;23.22;26.81
50394;BME280;36308;46.312;25.288;2024-03-29T10:55:56;96032.28;;;23.31;27.02
50394;BME280;36308;46.312;25.288;2024-03-29T10:58:22;96026.34;;;23.42;26.93
50394;BME280;36308;46.312;25.288;2024-03-29T11:00:52;96034.59;;;23.54;27.68
50394;BME280;36308;46.312;25.288;2024-03-29T11:05:57;96032.88;;;23.74;26.98
50394;BME280;36308;46.312;25.288;2024-03-29T11:08:27;96038.75;;;23.85;27.00
50394;BME280;36308;46.312;25.288;2024-03-29T11:10:57;96027.78;;;23.97;26.77
50394;BME280;36308;46.312;25.288;2024-03-29T11:13:27;96024.53;;;24.07;27.24
50394;BME280;36308;46.312;25.288;2024-03-29T11:15:55;96035.19;;;24.21;27.69
50394;BME280;36308;46.312;25.288;2024-03-29T11:18:21;96026.00;;;24.29;25.41
50394;BME280;36308;46.312;25.288;2024-03-29T11:20:48;96027.50;;;24.27;25.14
50394;BME280;36308;46.312;25.288;2024-03-29T11:23:21;96024.41;;;24.28;25.67
50394;BME280;36308;46.312;25.288;2024-03-29T11:25:54;96029.31;;;24.35;26.05
50394;BME280;36308;46.312;25.288;2024-03-29T11:28:30;96028.84;;;24.45;26.44
50394;BME280;36308;46.312;25.288;2024-03-29T11:33:31;96021.38;;;24.58;25.98
50394;BME280;36308;46.312;25.288;2024-03-29T11:35:57;96027.06;;;24.65;26.01
50394;BME280;36308;46.312;25.288;2024-03-29T11:38:33;96040.25;;;24.72;27.12
50394;BME280;36308;46.312;25.288;2024-03-29T11:41:10;96037.69;;;24.79;26.74
50394;BME280;36308;46.312;25.288;2024-03-29T11:43:36;96034.72;;;24.84;26.31
50394;BME280;36308;46.312;25.288;2024-03-29T11:46:02;96030.09;;;24.88;26.15
50394;BME280;36308;46.312;25.288;2024-03-29T11:48:29;96031.81;;;24.93;24.79
50394;BME280;36308;46.312;25.288;2024-03-29T11:50:56;96038.59;;;24.83;24.85
50394;BME280;36308;46.312;25.288;2024-03-29T11:53:22;96042.75;;;24.77;23.05
50394;BME280;36308;46.312;25.288;2024-03-29T11:55:48;96028.34;;;24.68;23.97
50394;BME280;36308;46.312;25.288;2024-03-29T11:58:23;96036.59;;;24.68;24.62
50394;BME280;36308;46.312;25.288;2024-03-29T12:00:51;96032.78;;;24.72;25.38
50394;BME280;36308;46.312;25.288;2024-03-29T12:03:18;96025.19;;;24.81;25.29
50394;BME280;36308;46.312;25.288;2024-03-29T12:05:45;96027.88;;;24.94;25.45
50394;BME280;36308;46.312;25.288;2024-03-29T12:08:10;96028.09;;;25.01;24.98
50394;BME280;36308;46.312;25.288;2024-03-29T12:10:36;96033.69;;;25.05;24.67
50394;BME280;36308;46.312;25.288;2024-03-29T12:13:02;96032.19;;;25.07;24.44
50394;BME280;36308;46.312;25.288;2024-03-29T12:15:28;96027.94;;;25.10;24.93
50394;BME280;36308;46.312;25.288;2024-03-29T12:18:03;96034.00;;;25.15;24.69
50394;BME280;36308;46.312;25.288;2024-03-29T12:20:33;96027.09;;;25.22;24.96
50394;BME280;36308;46.312;25.288;2024-03-29T12:23:00;96028.78;;;25.26;25.00
50394;BME280;36308;46.312;25.288;2024-03-29T12:25:27;96026.22;;;25.33;25.13
50394;BME280;36308;46.312;25.288;2024-03-29T12:27:53;96029.16;;;25.40;25.13
50394;BME280;36308;46.312;25.288;2024-03-29T12:30:18;96019.56;;;25.50;24.91
50394;BME280;36308;46.312;25.288;2024-03-29T12:32:44;96021.72;;;25.57;24.76
50394;BME280;36308;46.312;25.288;2024-03-29T12:35:13;96013.91;;;25.59;24.41
50394;BME280;36308;46.312;25.288;2024-03-29T12:37:46;96006.78;;;25.58;24.39
50394;BME280;36308;46.312;25.288;2024-03-29T12:40:12;95998.09;;;25.56;24.57
50394;BME280;36308;46.312;25.288;2024-03-29T12:42:40;95992.69;;;25.59;24.66
50394;BME280;36308;46.312;25.288;2024-03-29T12:45:06;96015.69;;;25.67;24.96
50394;BME280;36308;46.312;25.288;2024-03-29T12:47:33;96010.34;;;25.74;24.44
50394;BME280;36308;46.312;25.288;2024-03-29T12:50:02;96010.78;;;25.76;23.88
50394;BME280;36308;46.312;25.288;2024-03-29T12:52:36;96012.41;;;25.77;23.89
50394;BME280;36308;46.312;25.288;2024-03-29T12:55:01;96010.34;;;25.74;23.64
50394;BME280;36308;46.312;25.288;2024-03-29T12:57:27;96001.53;;;25.69;24.04
50394;BME280;36308;46.312;25.288;2024-03-29T12:59:52;95995.25;;;25.68;24.24